Time;durP1;ratioP1;P1;durP2;ratioP2;P2;SDS_P1;SDS_P2;PMS_P1;PMS_P2;Temp;Humidity;BMP_temperature;BMP_pressure;BME280_temperature;BME280_humidity;BME280_pressure;Samples;Min_cycle;Max_cycle;Signal;HPM_P1;HPM_P2
2021/01/15 00:01:46;;;;;;;19.80;8.43;;;;;;;14.64;40.72;102616.38;4976035;28;20609;-75
2021/01/15 00:04:12;;;;;;;15.77;7.70;;;;;;;14.68;40.55;102611.94;4976071;28;20397;-71
2021/01/15 00:06:38;;;;;;;12.18;7.75;;;;;;;14.68;40.76;102615.50;4975886;28;20053;-71
2021/01/15 00:09:04;;;;;;;11.82;8.05;;;;;;;14.60;40.55;102618.09;4975707;28;20128;-73
2021/01/15 00:11:32;;;;;;;12.95;6.72;;;;;;;14.65;41.01;102624.34;4975813;28;20022;-73
2021/01/15 00:13:59;;;;;;;13.50;7.53;;;;;;;14.68;40.64;102634.78;4976038;28;20154;-73
2021/01/15 00:16:30;;;;;;;13.70;8.25;;;;;;;14.68;40.49;102634.78;4975776;28;20069;-72
2021/01/15 00:18:57;;;;;;;14.68;6.38;;;;;;;14.70;40.51;102648.22;4975702;28;20023;-72
2021/01/15 00:21:34;;;;;;;12.18;7.45;;;;;;;14.70;40.41;102648.22;4975591;28;20027;-77
2021/01/15 00:24:02;;;;;;;13.85;7.95;;;;;;;14.68;40.26;102648.53;4975925;28;20142;-73
2021/01/15 00:26:29;;;;;;;15.85;7.75;;;;;;;14.67;40.29;102646.06;4975667;28;20085;-73
2021/01/15 00:28:56;;;;;;;13.45;7.03;;;;;;;14.66;40.58;102645.25;4975540;28;20026;-72
2021/01/15 00:31:35;;;;;;;11.43;7.72;;;;;;;14.61;40.32;102650.81;4975738;28;20039;-72
2021/01/15 00:34:02;;;;;;;16.92;7.80;;;;;;;14.61;40.37;102648.06;4975542;28;20038;-73
2021/01/15 00:36:27;;;;;;;11.80;8.23;;;;;;;14.57;40.36;102649.75;4975406;28;20050;-71
2021/01/15 00:38:53;;;;;;;13.93;7.53;;;;;;;14.43;40.56;102643.28;4975420;28;20489;-71
2021/01/15 00:41:19;;;;;;;13.57;8.15;;;;;;;14.06;40.86;102641.25;4975345;28;20039;-71
2021/01/15 00:43:44;;;;;;;13.25;8.70;;;;;;;14.21;40.37;102646.59;4957702;28;20027;-77
2021/01/15 00:46:14;;;;;;;13.75;7.90;;;;;;;14.14;40.59;102643.34;4974493;28;20023;-70
2021/01/15 00:48:40;;;;;;;18.35;8.38;;;;;;;14.16;40.33;102641.13;4975194;28;20023;-71
2021/01/15 00:51:07;;;;;;;13.52;7.93;;;;;;;14.14;40.24;102638.66;4975405;28;20105;-72
2021/01/15 00:53:32;;;;;;;16.05;7.10;;;;;;;14.11;40.23;102643.91;4975134;28;20493;-71
2021/01/15 00:55:58;;;;;;;13.70;8.02;;;;;;;14.14;40.31;102651.59;4975097;28;20057;-71
2021/01/15 00:58:24;;;;;;;14.15;8.27;;;;;;;14.12;40.39;102651.88;4975003;28;20355;-72
2021/01/15 01:00:51;;;;;;;11.52;7.30;;;;;;;14.07;40.27;102653.88;4974806;28;20042;-71
2021/01/15 01:03:17;;;;;;;12.20;8.02;;;;;;;14.02;40.18;102651.16;4974837;28;20027;-73
2021/01/15 01:05:42;;;;;;;15.00;8.23;;;;;;;13.97;40.21;102640.22;4974876;28;20023;-73
2021/01/15 01:08:08;;;;;;;12.18;7.57;;;;;;;13.94;40.08;102640.81;4974507;28;20030;-72
2021/01/15 01:10:34;;;;;;;12.30;7.75;;;;;;;13.95;40.14;102642.44;4974666;28;20098;-76
2021/01/15 01:13:00;;;;;;;10.73;7.80;;;;;;;13.99;40.17;102644.31;4974774;28;20034;-73
2021/01/15 01:15:25;;;;;;;14.85;8.10;;;;;;;14.00;40.04;102643.22;4974795;28;20033;-72
2021/01/15 01:17:53;;;;;;;12.73;7.68;;;;;;;14.02;39.86;102651.97;4974642;28;20111;-72
2021/01/15 01:20:19;;;;;;;14.77;7.90;;;;;;;14.02;40.07;102657.47;4974481;28;20501;-73
2021/01/15 01:22:54;;;;;;;18.30;9.02;;;;;;;13.81;40.28;102662.34;4974582;28;20038;-72
2021/01/15 01:25:20;;;;;;;12.38;7.65;;;;;;;13.62;40.72;102664.16;4957148;28;20030;-73
2021/01/15 01:27:45;;;;;;;12.65;8.95;;;;;;;13.61;40.76;102670.75;4974396;28;20092;-73
2021/01/15 01:30:14;;;;;;;11.98;8.15;;;;;;;13.68;40.86;102679.50;4974404;28;20101;-72
2021/01/15 01:32:40;;;;;;;18.08;8.07;;;;;;;13.71;40.73;102673.41;4974372;28;20026;-72
2021/01/15 01:35:06;;;;;;;14.63;8.15;;;;;;;13.73;40.94;102673.94;4974275;28;20134;-72
2021/01/15 01:37:32;;;;;;;20.35;7.88;;;;;;;13.74;40.80;102664.59;4974228;28;20034;-72
2021/01/15 01:39:58;;;;;;;17.10;9.30;;;;;;;13.74;40.86;102666.53;4974180;28;20031;-74
2021/01/15 01:42:23;;;;;;;16.50;8.77;;;;;;;13.72;41.13;102663.25;4974145;28;20110;-72
2021/01/15 01:44:49;;;;;;;16.65;8.77;;;;;;;13.70;41.08;102670.97;4956909;28;20379;-77
2021/01/15 01:47:15;;;;;;;14.63;9.07;;;;;;;13.64;41.14;102672.94;4974172;28;20031;-73
2021/01/15 01:49:40;;;;;;;18.40;10.23;;;;;;;13.65;41.10;102673.75;4974157;28;20034;-73
2021/01/15 01:52:07;;;;;;;15.88;9.00;;;;;;;13.52;41.42;102680.69;4974099;28;20466;-73
2021/01/15 01:54:36;;;;;;;16.50;10.20;;;;;;;13.60;40.98;102682.81;4974093;28;20114;-73
2021/01/15 01:57:04;;;;;;;16.63;10.35;;;;;;;13.63;41.14;102681.47;4973754;28;20035;-72
2021/01/15 01:59:30;;;;;;;16.83;10.25;;;;;;;13.57;41.14;102667.75;4973964;28;20029;-74
2021/01/15 02:01:56;;;;;;;19.00;11.05;;;;;;;13.58;41.14;102671.31;4973890;28;20134;-73
2021/01/15 02:04:22;;;;;;;17.92;10.57;;;;;;;13.56;41.15;102681.78;4973939;28;20026;-72
2021/01/15 02:06:48;;;;;;;15.48;9.60;;;;;;;13.52;40.87;102683.44;4973824;28;20018;-73
2021/01/15 02:09:14;;;;;;;13.95;9.63;;;;;;;13.49;41.31;102689.50;4973675;28;20098;-73
2021/01/15 02:12:01;;;;;;;15.43;10.27;;;;;;;13.42;40.97;102700.00;4973742;28;20034;-73
2021/01/15 02:14:35;;;;;;;16.70;10.25;;;;;;;13.29;41.39;102701.44;4974097;28;20027;-72
2021/01/15 02:17:03;;;;;;;18.40;11.18;;;;;;;13.30;41.38;102690.19;4973668;28;20027;-72
2021/01/15 02:19:34;;;;;;;15.60;11.10;;;;;;;13.37;41.16;102702.78;4974018;28;20589;-72
2021/01/15 02:22:39;;;;;;;21.10;11.82;;;;;;;13.31;41.42;102697.31;4973569;28;20039;-73
2021/01/15 02:25:24;;;;;;;15.70;10.23;;;;;;;13.33;41.24;102697.03;4973656;28;20038;-73
2021/01/15 02:28:10;;;;;;;16.05;10.10;;;;;;;13.34;40.92;102701.41;4973732;28;20118;-72
2021/01/15 02:30:49;;;;;;;19.75;11.48;;;;;;;13.31;41.14;102691.84;4973661;28;20027;-73
2021/01/15 02:33:42;;;;;;;17.13;10.75;;;;;;;13.28;41.09;102692.38;4973648;28;20034;-73
2021/01/15 02:36:16;;;;;;;23.55;11.55;;;;;;;13.12;41.08;102685.31;4973601;28;20051;-72
2021/01/15 02:38:51;;;;;;;15.15;10.80;;;;;;;13.06;41.25;102690.00;4973597;28;20023;-72
2021/01/15 02:41:26;;;;;;;18.65;11.00;;;;;;;13.06;41.12;102692.75;4956163;28;20088;-76
2021/01/15 02:44:00;;;;;;;18.95;11.20;;;;;;;13.00;41.16;102696.66;4973801;28;20163;-73
2021/01/15 02:46:46;;;;;;;23.02;13.23;;;;;;;12.99;41.27;102689.50;4973626;28;20497;-73
2021/01/15 02:49:13;;;;;;;17.23;11.10;;;;;;;13.03;41.20;102678.78;4973033;28;20473;-73
2021/01/15 02:51:40;;;;;;;19.98;11.95;;;;;;;13.01;41.32;102681.81;4973470;28;20030;-72
2021/01/15 02:54:06;;;;;;;19.83;12.45;;;;;;;13.06;41.23;102678.22;4973646;28;20065;-73
2021/01/15 02:56:32;;;;;;;16.23;10.93;;;;;;;13.04;41.08;102683.16;4973340;28;20031;-72
2021/01/15 02:58:58;;;;;;;22.00;11.17;;;;;;;13.11;41.09;102669.13;4973405;28;20089;-72
2021/01/15 03:01:24;;;;;;;19.73;11.75;;;;;;;13.09;40.90;102674.91;4973504;28;20113;-75
2021/01/15 03:04:00;;;;;;;22.35;13.02;;;;;;;13.05;40.86;102673.81;4973273;28;20492;-72
2021/01/15 03:06:38;;;;;;;20.60;12.80;;;;;;;13.06;40.71;102675.47;4973364;28;20051;-72
2021/01/15 03:09:06;;;;;;;20.65;12.60;;;;;;;13.01;41.03;102659.03;4975454;28;20039;-72
2021/01/15 03:11:32;;;;;;;20.67;13.38;;;;;;;12.96;40.90;102653.56;4976970;28;20539;-72
2021/01/15 03:14:01;;;;;;;19.25;12.80;;;;;;;12.92;40.87;102660.72;4977204;28;20105;-72
2021/01/15 03:16:28;;;;;;;18.88;13.40;;;;;;;12.86;40.95;102667.34;4976909;28;20038;-72
2021/01/15 03:18:56;;;;;;;25.63;14.43;;;;;;;12.81;40.73;102670.09;4976853;28;20031;-72
2021/01/15 03:21:22;;;;;;;24.98;14.45;;;;;;;12.77;41.08;102675.31;4976725;28;20031;-73
2021/01/15 03:23:48;;;;;;;18.17;12.65;;;;;;;12.77;40.84;102676.16;4976770;28;20023;-72
2021/01/15 03:26:14;;;;;;;24.17;13.10;;;;;;;12.68;40.84;102655.88;4976764;28;20029;-73
2021/01/15 03:28:40;;;;;;;17.42;13.05;;;;;;;12.70;40.81;102664.69;4976683;28;20153;-72
2021/01/15 03:31:05;;;;;;;22.27;13.32;;;;;;;12.70;40.68;102672.09;4976916;28;20101;-72
2021/01/15 03:33:31;;;;;;;30.65;12.90;;;;;;;12.67;40.83;102681.69;4976492;28;20023;-72
2021/01/15 03:35:56;;;;;;;32.45;15.00;;;;;;;12.60;40.70;102670.19;4976490;28;20026;-75
2021/01/15 03:38:25;;;;;;;29.42;13.35;;;;;;;12.57;40.52;102673.50;4976580;28;20027;-72
2021/01/15 03:40:51;;;;;;;19.42;12.63;;;;;;;12.59;40.62;102676.78;4976480;28;20106;-72
2021/01/15 03:43:21;;;;;;;17.03;12.47;;;;;;;12.55;40.54;102672.97;4976578;28;20049;-78
2021/01/15 03:45:51;;;;;;;19.98;12.65;;;;;;;12.49;40.46;102663.94;4975245;28;20023;-72
2021/01/15 03:48:18;;;;;;;;;;;;;;;12.35;40.62;102667.53;4976668;28;20034;-72
2021/01/15 03:50:44;;;;;;;16.70;11.87;;;;;;;12.38;40.72;102665.03;4976362;28;19920;-72
2021/01/15 03:53:14;;;;;;;22.23;12.40;;;;;;;12.33;40.68;102673.28;4958933;28;20564;-73
2021/01/15 03:55:40;;;;;;;17.25;11.43;;;;;;;12.11;41.13;102667.31;4976190;28;20029;-72
2021/01/15 03:58:06;;;;;;;22.40;13.03;;;;;;;12.05;41.33;102680.19;4976429;28;20118;-75
2021/01/15 04:00:31;;;;;;;19.33;12.00;;;;;;;12.00;41.40;102676.63;4975972;28;20426;-72
2021/01/15 04:02:57;;;;;;;17.70;10.93;;;;;;;11.97;41.38;102677.19;4976093;28;20031;-72
2021/01/15 04:05:23;;;;;;;19.02;10.75;;;;;;;11.89;41.40;102670.34;4976058;28;20477;-72
2021/01/15 04:07:48;;;;;;;19.50;12.00;;;;;;;11.90;41.37;102677.47;4976008;28;20062;-76
2021/01/15 04:10:15;;;;;;;17.37;11.10;;;;;;;11.85;41.47;102680.19;4975813;28;20074;-72
2021/01/15 04:12:43;;;;;;;16.75;12.73;;;;;;;11.85;41.55;102685.66;4975821;28;20043;-72
2021/01/15 04:15:10;;;;;;;14.10;11.17;;;;;;;11.84;41.60;102681.28;4976055;28;20027;-72
2021/01/15 04:17:37;;;;;;;16.17;10.95;;;;;;;11.83;41.50;102691.44;4958506;28;20038;-72
2021/01/15 04:20:04;;;;;;;17.02;11.88;;;;;;;11.81;41.29;102687.31;4958098;28;20122;-72
2021/01/15 04:22:48;;;;;;;16.95;12.10;;;;;;;11.77;41.48;102676.06;4975590;28;20284;-72
2021/01/15 04:25:14;;;;;;;20.73;11.20;;;;;;;11.68;41.39;102678.53;4975674;28;20050;-72
2021/01/15 04:27:41;;;;;;;17.83;13.07;;;;;;;11.69;41.87;102671.13;4958274;28;20034;-73
2021/01/15 04:30:09;;;;;;;17.23;12.20;;;;;;;11.70;41.66;102675.50;4975563;28;20035;-74
2021/01/15 04:32:35;;;;;;;14.43;10.63;;;;;;;11.82;41.50;102676.09;4975403;28;20035;-73
2021/01/15 04:35:04;;;;;;;15.67;11.80;;;;;;;11.86;41.57;102687.31;4975556;28;20045;-72
2021/01/15 04:37:29;;;;;;;20.92;12.63;;;;;;;11.91;41.59;102674.44;4957830;28;20045;-72
2021/01/15 04:39:55;;;;;;;15.77;11.83;;;;;;;11.94;41.51;102678.56;4957887;28;20035;-72
2021/01/15 04:42:23;;;;;;;13.23;10.37;;;;;;;11.99;41.32;102680.47;4975275;28;20033;-72
2021/01/15 04:44:50;;;;;;;16.73;10.77;;;;;;;12.04;41.43;102683.22;4975279;28;20065;-72
2021/01/15 04:47:16;;;;;;;17.55;11.40;;;;;;;12.13;41.42;102687.03;4975213;28;20035;-72
2021/01/15 04:49:42;;;;;;;16.57;11.87;;;;;;;12.13;41.30;102681.53;4975130;28;20065;-73
2021/01/15 04:52:13;;;;;;;16.70;11.33;;;;;;;12.07;41.38;102677.16;4975175;28;20034;-73
2021/01/15 04:54:41;;;;;;;16.40;11.38;;;;;;;12.18;41.30;102673.31;4975155;28;20027;-72
2021/01/15 04:57:11;;;;;;;17.35;11.60;;;;;;;12.25;41.21;102678.53;4975034;28;20051;-72
2021/01/15 04:59:49;;;;;;;23.93;11.93;;;;;;;12.16;41.39;102689.19;4975070;28;20478;-72
2021/01/15 05:02:19;;;;;;;17.37;10.63;;;;;;;12.11;41.55;102690.03;4974902;28;20034;-72
2021/01/15 05:04:44;;;;;;;;;;;;;;;12.15;41.61;102685.63;4975366;28;20027;-72
2021/01/15 05:07:12;;;;;;;25.88;10.43;;;;;;;12.18;41.43;102676.88;4974889;28;20391;-72
2021/01/15 05:09:43;;;;;;;15.35;10.52;;;;;;;12.22;41.26;102669.72;4974584;28;20445;-72
2021/01/15 05:12:15;;;;;;;14.07;9.45;;;;;;;12.21;41.37;102679.06;4974678;28;20508;-72
2021/01/15 05:14:48;;;;;;;16.40;10.32;;;;;;;12.30;41.42;102681.22;4974940;28;20039;-72
2021/01/15 05:17:18;;;;;;;16.30;9.85;;;;;;;12.33;41.37;102686.19;4974736;28;20486;-72
2021/01/15 05:19:44;;;;;;;;;;;;;;;12.24;41.42;102688.63;4974934;28;20019;-72
2021/01/15 05:22:11;;;;;;;14.63;9.73;;;;;;;12.31;41.46;102693.84;4974418;28;19918;-73
2021/01/15 05:24:38;;;;;;;18.20;9.25;;;;;;;12.38;41.24;102703.41;4974474;28;20034;-73
2021/01/15 05:30:11;;;;;;;12.77;7.63;;;;;;;12.15;41.44;102699.34;4973748;28;20386;-72
2021/01/15 05:32:41;;;;;;;14.57;8.57;;;;;;;12.29;41.24;102701.53;4973603;28;20042;-72
2021/01/15 05:35:08;;;;;;;15.60;8.95;;;;;;;12.21;41.42;102698.25;4974482;28;20038;-72
2021/01/15 05:37:34;;;;;;;12.00;8.00;;;;;;;12.21;41.35;102706.47;4974330;28;20515;-72
2021/01/15 05:39:59;;;;;;;14.27;8.63;;;;;;;12.29;41.41;102712.50;4974359;28;20062;-77
2021/01/15 05:42:25;;;;;;;12.80;8.27;;;;;;;12.50;40.96;102708.63;4974145;28;20027;-72
2021/01/15 05:44:51;;;;;;;20.00;9.60;;;;;;;12.41;41.16;102713.84;4974191;28;20078;-70
2021/01/15 05:47:16;;;;;;;14.48;8.75;;;;;;;12.31;41.34;102702.06;4974172;28;20102;-72
2021/01/15 05:49:57;;;;;;;13.65;8.38;;;;;;;12.34;41.34;102696.03;4973968;28;20034;-71
2021/01/15 05:52:23;;;;;;;12.30;7.57;;;;;;;12.39;41.17;102702.34;4974007;28;20420;-72
2021/01/15 05:54:54;;;;;;;12.38;7.30;;;;;;;12.41;41.13;102705.63;4974055;28;20105;-70
2021/01/15 05:57:26;;;;;;;15.75;7.38;;;;;;;12.28;41.32;102703.44;4974155;28;20062;-71
2021/01/15 05:59:52;;;;;;;12.98;8.57;;;;;;;12.25;41.64;102704.00;4974003;28;20061;-71
2021/01/15 06:02:18;;;;;;;13.75;8.15;;;;;;;12.27;41.59;102706.47;4973726;28;20027;-72
2021/01/15 06:04:44;;;;;;;18.55;9.93;;;;;;;12.05;42.19;102713.06;4973927;28;20061;-71
2021/01/15 06:07:09;;;;;;;23.45;10.05;;;;;;;12.20;41.59;102704.00;4956506;28;20030;-71
2021/01/15 06:09:39;;;;;;;12.00;8.43;;;;;;;12.17;41.74;102708.13;4973634;28;20047;-72
2021/01/15 06:12:07;;;;;;;22.83;10.30;;;;;;;12.17;41.86;102704.56;4972513;28;20038;-71
2021/01/15 06:14:34;;;;;;;15.43;9.33;;;;;;;12.19;41.72;102697.72;4973740;28;20037;-71
2021/01/15 06:17:09;;;;;;;12.15;8.60;;;;;;;12.12;41.84;102699.91;4972534;28;20035;-71
2021/01/15 06:19:50;;;;;;;13.15;8.45;;;;;;;12.06;41.74;102694.72;4956436;28;20034;-71
2021/01/15 06:22:36;;;;;;;18.92;9.43;;;;;;;11.98;42.10;102704.31;4973565;28;20085;-71
2021/01/15 06:25:07;;;;;;;13.82;8.70;;;;;;;11.97;42.15;102699.91;4973811;28;20030;-71
2021/01/15 06:27:38;;;;;;;13.47;8.37;;;;;;;12.04;41.76;102692.25;4973685;28;20118;-71
2021/01/15 06:30:13;;;;;;;15.57;9.18;;;;;;;12.10;41.71;102687.59;4973600;28;20082;-71
2021/01/15 06:32:41;;;;;;;12.05;9.02;;;;;;;11.97;42.00;102683.47;4973685;28;20422;-71
2021/01/15 06:35:08;;;;;;;13.02;8.70;;;;;;;12.06;41.79;102687.31;4973892;28;20458;-77
2021/01/15 06:37:36;;;;;;;11.70;8.33;;;;;;;11.89;42.04;102684.84;4973918;28;20461;-71
2021/01/15 06:40:10;;;;;;;19.35;9.68;;;;;;;11.97;41.93;102682.66;4973784;28;20058;-71
2021/01/15 06:42:47;;;;;;;14.73;8.80;;;;;;;12.00;41.86;102679.38;4975429;28;20470;-71
2021/01/15 06:45:14;;;;;;;19.33;9.93;;;;;;;12.06;41.82;102681.00;4977554;28;20385;-71
2021/01/15 06:47:44;;;;;;;12.18;8.30;;;;;;;12.13;41.65;102690.59;4977405;28;20126;-71
2021/01/15 06:50:17;;;;;;;10.37;7.90;;;;;;;12.16;41.40;102687.28;4977337;28;20493;-71
2021/01/15 06:52:49;;;;;;;15.90;9.35;;;;;;;12.13;41.67;102692.50;4976161;28;20077;-71
2021/01/15 06:55:17;;;;;;;11.95;8.05;;;;;;;12.08;41.63;102693.31;4977348;28;20109;-72
2021/01/15 06:57:48;;;;;;;11.82;8.55;;;;;;;12.15;41.61;102684.81;4977269;28;20031;-71
2021/01/15 07:00:20;;;;;;;11.85;7.88;;;;;;;12.20;41.35;102687.56;4977171;28;20058;-71
2021/01/15 07:03:15;;;;;;;13.18;8.85;;;;;;;12.14;41.63;102678.53;4977203;28;20033;-73
2021/01/15 07:05:46;;;;;;;14.40;8.97;;;;;;;12.00;41.75;102688.41;4977141;28;20027;-71
2021/01/15 07:08:13;;;;;;;11.13;8.73;;;;;;;11.91;41.86;102679.09;4976863;28;20029;-72
2021/01/15 07:10:39;;;;;;;11.30;8.70;;;;;;;12.03;41.75;102685.13;4976981;28;20548;-71
2021/01/15 07:13:10;;;;;;;13.35;8.63;;;;;;;11.97;41.88;102680.75;4976972;28;20061;-71
2021/01/15 07:15:50;;;;;;;13.50;7.60;;;;;;;11.98;41.67;102676.91;4977202;28;20062;-71
2021/01/15 07:18:31;;;;;;;12.63;8.30;;;;;;;11.92;41.61;102686.22;4959582;28;20034;-71
2021/01/15 07:21:03;;;;;;;10.07;7.57;;;;;;;11.77;42.01;102694.41;4976814;28;20035;-71
2021/01/15 07:23:48;;;;;;;8.98;7.53;;;;;;;11.73;41.97;102696.88;4976883;28;20026;-71
2021/01/15 07:26:15;;;;;;;13.30;8.73;;;;;;;11.83;41.86;102696.09;4976799;28;20023;-71
2021/01/15 07:28:41;;;;;;;13.32;8.15;;;;;;;11.84;41.82;102694.97;4976964;28;20046;-71
2021/01/15 07:31:09;;;;;;;15.77;8.23;;;;;;;11.64;42.25;102687.56;4975467;28;20440;-71
2021/01/15 07:33:37;;;;;;;9.38;7.82;;;;;;;11.67;42.07;102692.50;4976690;28;20034;-72
2021/01/15 07:36:04;;;;;;;9.80;7.53;;;;;;;11.70;41.95;102700.16;4976610;28;20050;-72
2021/01/15 07:38:29;;;;;;;15.93;8.50;;;;;;;11.56;42.42;102699.88;4976532;28;20101;-71
2021/01/15 07:40:55;;;;;;;10.10;8.20;;;;;;;11.76;42.02;102695.50;4975160;28;20418;-73
2021/01/15 07:43:29;;;;;;;12.27;8.37;;;;;;;11.63;41.79;102697.66;4976494;28;20030;-72
2021/01/15 07:45:56;;;;;;;10.93;8.35;;;;;;;11.73;41.94;102701.53;4976365;28;20058;-72
2021/01/15 07:48:21;;;;;;;11.60;8.53;;;;;;;11.77;41.79;102706.19;4976400;28;20027;-71
2021/01/15 07:50:48;;;;;;;11.90;8.23;;;;;;;11.72;42.03;102708.94;4976308;28;20038;-71
2021/01/15 07:53:28;;;;;;;14.00;7.73;;;;;;;11.72;41.81;102706.19;4976001;28;20039;-71
2021/01/15 07:56:01;;;;;;;11.82;7.90;;;;;;;11.70;42.10;102715.75;4958970;28;20038;-73
2021/01/15 07:58:37;;;;;;;14.98;8.70;;;;;;;11.72;41.99;102714.41;4976243;28;20085;-71
2021/01/15 08:01:13;;;;;;;11.27;8.00;;;;;;;11.74;41.88;102712.22;4976072;28;20086;-71
2021/01/15 08:03:44;;;;;;;16.13;9.27;;;;;;;11.73;41.83;102707.00;4976198;28;20090;-76
2021/01/15 08:06:16;;;;;;;17.03;8.37;;;;;;;11.75;41.96;102711.13;4976313;28;20026;-76
2021/01/15 08:09:04;;;;;;;11.47;8.20;;;;;;;11.65;42.08;102703.72;4975780;28;20458;-74
2021/01/15 08:11:32;;;;;;;13.10;9.15;;;;;;;11.80;41.92;102694.72;4975976;28;20027;-71
2021/01/15 08:14:20;;;;;;;17.47;9.47;;;;;;;11.71;42.11;102690.00;4975981;28;20014;-69
2021/01/15 08:16:46;;;;;;;15.23;8.05;;;;;;;11.69;41.80;102690.28;4975852;28;20065;-72
2021/01/15 08:19:23;;;;;;;15.43;7.65;;;;;;;11.72;41.76;102686.22;4975603;28;20031;-71
2021/01/15 08:21:50;;;;;;;12.02;8.05;;;;;;;11.66;41.84;102685.38;4956709;28;20042;-78
2021/01/15 08:24:17;;;;;;;19.87;8.63;;;;;;;11.59;42.22;102682.91;4978366;28;20030;-71
2021/01/15 08:26:50;;;;;;;14.00;8.07;;;;;;;11.42;42.23;102676.03;4975713;28;20417;-73
2021/01/15 08:29:23;;;;;;;18.13;8.37;;;;;;;11.48;42.18;102689.44;4970967;28;20026;-71
2021/01/15 08:31:56;;;;;;;22.83;9.85;;;;;;;11.47;42.24;102689.72;4988935;28;20105;-76
2021/01/15 08:34:22;;;;;;;16.98;9.00;;;;;;;11.43;42.45;102688.63;4962576;28;20035;-72
2021/01/15 08:36:56;;;;;;;15.03;9.47;;;;;;;11.31;42.43;102686.94;4973779;28;20402;-72
2021/01/15 08:39:22;;;;;;;24.30;9.02;;;;;;;11.50;42.06;102684.53;4957346;28;20394;-76
2021/01/15 08:41:58;;;;;;;12.47;8.13;;;;;;;11.42;42.11;102671.38;4975198;28;20035;-76
2021/01/15 08:44:24;;;;;;;19.00;10.63;;;;;;;11.42;42.46;102674.13;4974831;28;20027;-70
2021/01/15 08:46:51;;;;;;;14.70;8.43;;;;;;;11.42;42.32;102673.31;4974714;28;20062;-70
2021/01/15 08:49:17;;;;;;;25.88;9.95;;;;;;;11.38;42.62;102673.84;4973561;28;20038;-71
2021/01/15 08:51:47;;;;;;;13.87;8.83;;;;;;;11.41;42.37;102686.19;4974944;28;20050;-70
2021/01/15 08:54:14;;;;;;;33.97;12.33;;;;;;;11.46;42.40;102675.22;4974627;28;20027;-70
2021/01/15 08:56:45;;;;;;;23.02;10.65;;;;;;;11.50;42.29;102670.84;4974795;28;20102;-74
2021/01/15 08:59:25;;;;;;;23.80;12.17;;;;;;;11.45;42.30;102657.16;4975064;28;20120;-70
2021/01/15 09:01:53;;;;;;;24.42;10.25;;;;;;;11.33;42.75;102662.03;4974094;28;20027;-74
2021/01/15 09:04:32;;;;;;;20.83;10.10;;;;;;;11.27;42.73;102663.16;4975029;28;20110;-70
2021/01/15 09:07:04;;;;;;;32.42;11.65;;;;;;;11.22;43.09;102650.28;4974062;28;20023;-70
2021/01/15 09:09:31;;;;;;;24.43;10.40;;;;;;;11.22;42.85;102657.66;4974499;28;20520;-72
2021/01/15 09:12:20;;;;;;;26.23;10.70;;;;;;;11.29;42.76;102658.22;4937406;28;20034;-73
2021/01/15 09:14:48;;;;;;;40.80;12.77;;;;;;;11.33;42.70;102651.91;4974335;28;20026;-74
2021/01/15 09:17:14;;;;;;;22.07;10.00;;;;;;;11.44;42.93;102655.50;4974599;28;20107;-72
2021/01/15 09:19:39;;;;;;;42.87;12.77;;;;;;;11.44;42.49;102646.47;4970749;28;20027;-75
2021/01/15 09:22:09;;;;;;;30.20;12.03;;;;;;;11.61;42.29;102647.84;4952279;28;20693;-74
2021/01/15 09:24:36;;;;;;;56.83;14.60;;;;;;;11.47;42.81;102649.47;4976432;28;20023;-71
2021/01/15 09:27:07;;;;;;;58.35;16.98;;;;;;;11.55;42.71;102648.94;4981465;28;20030;-73
2021/01/15 09:29:38;;;;;;;27.33;12.03;;;;;;;11.64;42.15;102647.31;4972928;28;20109;-75
2021/01/15 09:32:04;;;;;;;34.23;12.10;;;;;;;11.69;41.79;102649.22;4966831;28;20477;-76
2021/01/15 09:34:31;;;;;;;58.20;20.30;;;;;;;11.71;42.32;102663.44;4955149;28;20405;-82
2021/01/15 09:37:05;;;;;;;48.10;19.23;;;;;;;11.65;42.58;102668.13;5093987;27;20353;-71
2021/01/15 09:39:30;;;;;;;41.17;15.50;;;;;;;11.65;42.72;102664.56;5094024;28;20031;-86
2021/01/15 09:41:58;;;;;;;24.37;13.07;;;;;;;11.81;41.95;102679.13;5091874;28;20019;-73
2021/01/15 09:44:28;;;;;;;27.40;16.47;;;;;;;11.82;42.45;102672.53;5090630;28;20028;-73
2021/01/15 09:46:58;;;;;;;31.48;13.52;;;;;;;11.86;42.37;102663.50;5092498;28;20037;-74
2021/01/15 09:49:24;;;;;;;25.47;14.17;;;;;;;11.93;42.34;102666.75;5108753;28;20122;-73
2021/01/15 09:51:51;;;;;;;18.43;11.83;;;;;;;11.99;42.44;102664.84;5108605;28;20456;-73
2021/01/15 09:54:17;;;;;;;30.03;12.20;;;;;;;12.08;42.37;102668.66;5110013;28;20020;-75
2021/01/15 09:56:43;;;;;;;28.45;12.13;;;;;;;12.02;42.50;102675.28;5098221;28;20383;-80
2021/01/15 09:59:13;;;;;;;23.27;11.77;;;;;;;12.17;42.42;102667.03;5094744;28;20032;-85
2021/01/15 10:01:39;;;;;;;27.97;11.00;;;;;;;12.23;42.43;102670.56;5089802;28;20031;-75
2021/01/15 10:04:05;;;;;;;17.13;10.90;;;;;;;12.32;42.47;102670.81;5093520;28;20047;-82
2021/01/15 10:06:36;;;;;;;15.80;9.70;;;;;;;12.41;42.16;102674.66;5089803;28;20054;-75
2021/01/15 10:09:02;;;;;;;43.03;12.53;;;;;;;12.30;42.71;102670.28;5106432;28;20020;-75
2021/01/15 10:11:38;;;;;;;44.72;12.20;;;;;;;12.43;42.39;102664.22;5103753;28;20020;-79
2021/01/15 10:14:07;;;;;;;33.95;15.63;;;;;;;12.56;42.39;102663.63;5092291;28;20032;-75
2021/01/15 10:16:40;;;;;;;19.88;11.68;;;;;;;12.60;42.34;102661.94;5099552;28;20027;-76
2021/01/15 10:19:06;;;;;;;35.57;16.33;;;;;;;12.61;42.56;102665.50;5088175;28;20036;-74
2021/01/15 10:21:32;;;;;;;50.35;30.15;;;;;;;12.80;42.29;102665.72;5096789;28;20024;-78
2021/01/15 10:23:59;;;;;;;39.97;25.80;;;;;;;12.80;42.70;102663.81;5105504;28;20024;-84
2021/01/15 10:26:26;;;;;;;35.88;18.90;;;;;;;12.91;42.74;102667.31;5098128;28;20457;-76
2021/01/15 10:28:56;;;;;;;52.47;31.17;;;;;;;13.01;42.56;102653.56;5107220;28;20118;-78
2021/01/15 10:31:23;;;;;;;51.28;23.98;;;;;;;13.10;42.88;102660.09;5102266;28;20061;-79
2021/01/15 10:33:49;;;;;;;33.47;15.57;;;;;;;13.21;42.99;102663.59;5108064;28;20390;-82
2021/01/15 10:36:14;;;;;;;54.22;35.00;;;;;;;13.35;43.17;102658.31;5108428;28;20047;-85
2021/01/15 10:38:40;;;;;;;38.45;21.55;;;;;;;13.46;43.21;102655.22;5107322;28;20495;-80
2021/01/15 10:41:05;;;;;;;22.30;12.50;;;;;;;13.53;43.17;102654.91;5107849;28;20487;-77
2021/01/15 10:43:31;;;;;;;15.32;10.75;;;;;;;13.49;43.35;102660.13;5083355;28;20487;-79
2021/01/15 10:45:57;;;;;;;16.67;10.00;;;;;;;13.51;43.76;102655.16;5087385;28;20063;-82
2021/01/15 10:48:22;;;;;;;21.95;10.30;;;;;;;13.58;43.81;102655.66;5079536;28;20025;-81
2021/01/15 10:50:48;;;;;;;17.38;9.50;;;;;;;13.79;43.66;102663.75;5074253;28;20470;-79
2021/01/15 10:53:13;;;;;;;19.77;10.15;;;;;;;13.86;43.46;102653.25;5075050;28;20436;-79
2021/01/15 10:55:39;;;;;;;16.55;9.93;;;;;;;14.00;43.52;102651.47;5074128;28;20542;-80
2021/01/15 10:58:05;;;;;;;17.98;10.70;;;;;;;14.06;43.71;102652.25;5084080;28;20082;-76
2021/01/15 11:00:31;;;;;;;24.33;11.45;;;;;;;14.25;43.80;102661.38;5094978;28;20044;-78
2021/01/15 11:02:57;;;;;;;57.53;26.48;;;;;;;14.33;43.92;102668.97;5078739;28;20059;-78
2021/01/15 11:05:22;;;;;;;29.85;15.02;;;;;;;14.56;43.89;102667.38;5081503;28;20028;-78
2021/01/15 11:07:48;;;;;;;49.53;26.25;;;;;;;14.68;44.07;102664.22;5094621;28;20024;-78
2021/01/15 11:10:14;;;;;;;27.38;13.82;;;;;;;14.71;44.60;102663.63;5095132;28;20024;-83
2021/01/15 11:12:41;;;;;;;22.05;13.85;;;;;;;14.81;44.79;102654.41;5075705;28;20035;-76
2021/01/15 11:15:07;;;;;;;49.17;26.95;;;;;;;14.89;44.79;102649.09;5087041;28;20024;-79
2021/01/15 11:17:36;;;;;;;24.95;12.75;;;;;;;14.93;45.27;102639.09;5081345;28;20434;-79
2021/01/15 11:20:04;;;;;;;54.97;30.00;;;;;;;15.12;44.88;102632.81;5094478;28;20389;-80
2021/01/15 11:22:30;;;;;;;28.42;16.35;;;;;;;15.21;44.69;102633.78;5093448;28;20028;-76
2021/01/15 11:24:55;;;;;;;32.13;16.10;;;;;;;15.24;45.21;102630.41;5093960;28;20359;-79
2021/01/15 11:27:21;;;;;;;63.58;34.05;;;;;;;15.43;44.82;102622.13;5084495;28;20425;-75